Terminal Aerodrome Forecast
Issued by NWS Wilmington, NC

Home | Current Version | Previous Version | Text Only | Print | Product List | Glossary On
Versions: 1 2 3 4 5 6 7 8 9 10 11 12 13 14 15 16 17 18
851
FTUS42 KILM 270520
TAFFLO
TAF
KFLO 270520Z 2706/2806 00000KT P6SM SKC
     FM271300 12006KT P6SM FEW250
     FM271900 15007KT P6SM SCT250
     FM280000 13005KT P6SM BKN100=

USA.gov is the U.S. government's official web portal to all federal, state and local government web resources and services.